Time;durP1;ratioP1;P1;durP2;ratioP2;P2;SDS_P1;SDS_P2;PMS_P1;PMS_P2;Temp;Humidity;BMP_temperature;BMP_pressure;BME280_temperature;BME280_humidity;BME280_pressure;Samples;Min_cycle;Max_cycle;Signal;HPM_P1;HPM_P2
2021/12/06 00:01:31;;;;;;;72.82;28.40;;;;;;;9.40;83.66;99437.97;5067175;28;20035;-21
2021/12/06 00:04:25;;;;;;;77.60;31.15;;;;;;;9.16;85.28;99421.09;5067635;28;20060;-20
2021/12/06 00:06:56;;;;;;;84.82;31.48;;;;;;;9.00;85.96;99433.16;5068255;28;20048;-21
2021/12/06 00:09:24;;;;;;;74.35;26.75;;;;;;;8.63;88.05;99428.69;5071244;28;20020;-20
2021/12/06 00:11:56;;;;;;;68.47;26.77;;;;;;;8.59;88.32;99421.38;5070952;28;20032;-20
2021/12/06 00:14:27;;;;;;;74.28;26.55;;;;;;;8.54;88.70;99439.81;5071196;28;20052;-20
2021/12/06 00:16:53;;;;;;;77.15;27.85;;;;;;;8.55;88.45;99418.34;5071078;28;20492;-20
2021/12/06 00:19:18;;;;;;;83.68;30.20;;;;;;;8.68;88.47;99438.63;5070750;28;20036;-20
2021/12/06 00:21:44;;;;;;;73.65;28.38;;;;;;;8.55;88.57;99420.19;5071088;28;20400;-20
2021/12/06 00:24:09;;;;;;;76.35;28.42;;;;;;;8.56;89.15;99425.28;5071328;28;20029;-20
2021/12/06 00:26:35;;;;;;;82.13;32.08;;;;;;;8.58;88.94;99422.41;5036538;28;20036;-20
2021/12/06 00:29:00;;;;;;;96.68;31.00;;;;;;;8.39;89.99;99425.00;5070890;28;20511;-20
2021/12/06 00:31:31;;;;;;;84.82;31.73;;;;;;;8.50;90.09;99439.47;5070905;28;20407;-20
2021/12/06 00:34:00;;;;;;;90.20;32.38;;;;;;;8.28;90.80;99449.66;5070423;28;20403;-20
2021/12/06 00:36:31;;;;;;;88.70;31.35;;;;;;;8.04;91.39;99416.78;5053492;28;20028;-20
2021/12/06 00:38:58;;;;;;;105.68;32.95;;;;;;;8.10;91.93;99436.34;5052805;28;20032;-20
2021/12/06 00:41:24;;;;;;;100.07;31.77;;;;;;;8.44;90.33;99419.91;5070470;28;20534;-21
2021/12/06 00:43:50;;;;;;;96.28;34.67;;;;;;;8.25;91.06;99431.50;5070679;28;20028;-20
2021/12/06 00:46:15;;;;;;;103.35;36.03;;;;;;;7.97;93.02;99430.13;5070599;28;20119;-20
2021/12/06 00:48:41;;;;;;;96.70;34.00;;;;;;;7.98;92.97;99433.56;5052333;28;20020;-19
2021/12/06 00:51:06;;;;;;;79.10;30.95;;;;;;;7.83;93.80;99437.38;5070534;28;20032;-20
2021/12/06 00:53:32;;;;;;;87.07;31.88;;;;;;;8.16;92.08;99423.00;5069975;28;20067;-21
2021/12/06 00:55:57;;;;;;;92.38;39.53;;;;;;;8.11;92.15;99436.13;5052447;28;20039;-20
2021/12/06 00:58:25;;;;;;;112.72;49.13;;;;;;;8.24;91.90;99429.88;5070630;28;20039;-21
2021/12/06 01:00:52;;;;;;;130.73;47.00;;;;;;;8.29;91.60;99427.34;5070442;28;20048;-20
2021/12/06 01:03:20;;;;;;;131.70;42.55;;;;;;;8.22;91.48;99434.59;5070342;28;20036;-20
2021/12/06 01:05:46;;;;;;;147.93;43.63;;;;;;;7.77;93.56;99413.53;5070456;28;20028;-20
2021/12/06 01:08:11;;;;;;;147.32;43.05;;;;;;;7.96;93.04;99403.78;5070108;28;20059;-20
2021/12/06 01:10:37;;;;;;;143.48;44.15;;;;;;;8.02;91.57;99389.63;5070147;28;20040;-20
2021/12/06 01:13:03;;;;;;;144.98;41.40;;;;;;;7.84;91.94;99377.13;5069900;28;20396;-20
2021/12/06 01:15:29;;;;;;;137.98;41.22;;;;;;;7.95;91.79;99392.34;5069609;28;20135;-20
2021/12/06 01:17:55;;;;;;;151.70;43.42;;;;;;;8.03;92.12;99389.41;5069254;28;20113;-20
2021/12/06 01:20:25;;;;;;;152.77;44.75;;;;;;;8.35;91.08;99391.94;5070107;28;20036;-21
2021/12/06 01:22:58;;;;;;;159.05;43.63;;;;;;;8.62;89.44;99389.03;5069917;28;20029;-20
2021/12/06 01:30:32;;;;;;;156.65;44.83;;;;;;;8.25;90.60;99379.19;5070020;28;20111;-20
2021/12/06 01:33:34;;;;;;;148.32;44.55;;;;;;;8.15;91.09;99372.75;5069655;28;20391;-20
2021/12/06 01:41:28;;;;;;;143.52;43.70;;;;;;;8.02;92.11;99373.69;5069691;28;20035;-20
2021/12/06 01:44:07;;;;;;;158.65;43.40;;;;;;;7.88;93.61;99380.16;5069633;28;20465;-20
2021/12/06 01:46:34;;;;;;;146.25;41.28;;;;;;;8.00;92.55;99373.91;5069736;28;20141;-20
2021/12/06 01:48:59;;;;;;;159.32;44.35;;;;;;;8.05;92.46;99357.34;5069597;28;20028;-19
2021/12/06 01:51:25;;;;;;;158.70;41.35;;;;;;;8.16;92.04;99379.69;5069022;28;20055;-20
2021/12/06 01:53:50;;;;;;;145.75;40.83;;;;;;;8.49;90.51;99379.38;5069145;28;20039;-20
2021/12/06 01:56:16;;;;;;;151.20;40.08;;;;;;;8.52;90.14;99370.97;5069356;28;20037;-20
2021/12/06 01:58:44;;;;;;;158.43;43.60;;;;;;;8.59;89.32;99352.28;5051467;28;20032;-20
2021/12/06 02:01:10;;;;;;;134.18;40.03;;;;;;;8.41;89.09;99343.25;5068952;28;20094;-20
2021/12/06 02:03:35;;;;;;;160.95;41.05;;;;;;;8.75;89.46;99356.97;5068951;28;20032;-20
2021/12/06 02:06:01;;;;;;;129.23;39.75;;;;;;;8.71;88.58;99347.81;5069131;28;20040;-21
2021/12/06 02:08:26;;;;;;;145.77;37.38;;;;;;;8.75;88.34;99341.03;5051177;28;20074;-20
2021/12/06 02:10:58;;;;;;;137.65;37.40;;;;;;;8.87;87.16;99334.94;5069315;28;20032;-20
2021/12/06 02:13:24;;;;;;;148.57;39.67;;;;;;;9.11;86.51;99341.16;5068548;28;20040;-20
2021/12/06 02:15:53;;;;;;;134.32;37.13;;;;;;;8.72;86.80;99317.53;5068643;28;20072;-20
2021/12/06 02:21:29;;;;;;;125.75;34.25;;;;;;;8.78;87.81;99335.25;5059574;28;20051;-21
2021/12/06 02:23:55;;;;;;;112.50;33.28;;;;;;;8.69;88.25;99325.97;5068913;28;20032;-20
2021/12/06 02:26:21;;;;;;;84.20;29.17;;;;;;;8.39;89.24;99317.94;5068939;28;20035;-20
2021/12/06 02:28:47;;;;;;;91.05;32.03;;;;;;;8.45;89.66;99325.84;5068822;28;20044;-20
2021/12/06 02:31:12;;;;;;;73.07;26.48;;;;;;;8.90;86.89;99331.84;5067889;28;20119;-19
2021/12/06 02:33:38;;;;;;;69.30;25.80;;;;;;;8.89;86.94;99319.56;5068287;28;20036;-20
2021/12/06 02:36:04;;;;;;;60.67;22.45;;;;;;;9.00;85.43;99321.47;5050586;28;20032;-20
2021/12/06 02:38:29;;;;;;;57.90;22.40;;;;;;;9.01;85.91;99337.19;5068465;28;20035;-20
2021/12/06 02:40:55;;;;;;;62.65;22.05;;;;;;;8.92;85.57;99325.25;5068323;28;20032;-20
2021/12/06 02:43:20;;;;;;;63.80;25.30;;;;;;;9.23;84.78;99326.84;5068386;28;20039;-20
2021/12/06 02:45:46;;;;;;;55.65;22.98;;;;;;;9.02;85.40;99333.50;5068321;28;20033;-20
2021/12/06 02:48:12;;;;;;;57.90;22.15;;;;;;;9.16;84.87;99326.13;5068125;28;20032;-20
2021/12/06 02:50:51;;;;;;;58.10;21.33;;;;;;;8.67;86.91;99312.09;5050469;28;20037;-20
2021/12/06 02:53:18;;;;;;;55.72;22.00;;;;;;;8.26;88.63;99284.38;5067976;28;20032;-20
2021/12/06 02:55:43;;;;;;;58.78;22.73;;;;;;;8.16;89.64;99294.72;5050307;28;20021;-20
2021/12/06 02:58:21;;;;;;;56.25;22.27;;;;;;;7.91;91.02;99282.31;5068110;28;20029;-20
2021/12/06 03:00:54;;;;;;;60.10;23.70;;;;;;;8.22;89.85;99285.84;5068219;28;20028;-20
2021/12/06 03:03:20;;;;;;;57.08;22.83;;;;;;;8.07;90.72;99286.22;5067835;28;20028;-20
2021/12/06 03:05:46;;;;;;;55.47;23.10;;;;;;;8.03;91.24;99306.28;5067904;28;20093;-20
2021/12/06 03:08:12;;;;;;;48.92;20.58;;;;;;;7.97;90.85;99302.66;5050110;28;20408;-20
2021/12/06 03:10:38;;;;;;;49.67;22.33;;;;;;;7.95;91.83;99318.00;5067973;28;20059;-21
2021/12/06 03:13:04;;;;;;;48.58;21.13;;;;;;;8.05;91.63;99313.00;5068028;28;20058;-20
2021/12/06 03:15:29;;;;;;;57.88;23.58;;;;;;;8.17;91.46;99320.22;5067659;28;20048;-20
2021/12/06 03:17:55;;;;;;;54.30;22.05;;;;;;;8.42;89.79;99326.31;5068124;28;20025;-21
2021/12/06 03:20:20;;;;;;;50.25;20.75;;;;;;;8.28;90.54;99316.03;5068040;28;20037;-27
2021/12/06 03:22:46;;;;;;;54.22;20.98;;;;;;;8.08;91.44;99308.28;5067949;28;20033;-20
2021/12/06 03:25:13;;;;;;;52.53;21.45;;;;;;;8.06;92.17;99292.56;5067926;28;20399;-19
2021/12/06 03:27:38;;;;;;;51.95;19.13;;;;;;;7.87;93.11;99297.06;5067556;28;20477;-21
2021/12/06 03:30:05;;;;;;;50.80;19.70;;;;;;;8.19;91.33;99304.88;5068069;28;20070;-20
2021/12/06 03:32:31;;;;;;;49.80;19.95;;;;;;;8.00;91.48;99296.91;5049702;28;20028;-20
2021/12/06 03:34:56;;;;;;;55.50;21.88;;;;;;;8.12;91.59;99312.91;5067818;28;20475;-20
2021/12/06 03:37:22;;;;;;;61.63;24.30;;;;;;;7.91;91.81;99300.91;5067545;28;20037;-19
2021/12/06 03:39:47;;;;;;;69.53;28.23;;;;;;;8.05;91.83;99320.97;5067763;28;20032;-20
2021/12/06 03:42:14;;;;;;;65.60;31.05;;;;;;;8.35;90.81;99319.41;5052089;28;20524;-21
2021/12/06 03:44:39;;;;;;;60.38;20.90;;;;;;;8.08;91.14;99314.41;5072035;28;20036;-20
2021/12/06 03:47:09;;;;;;;64.03;23.85;;;;;;;7.94;92.42;99302.28;5071910;28;20500;-20
2021/12/06 03:49:35;;;;;;;64.07;24.20;;;;;;;8.05;91.89;99314.84;5071388;28;20044;-20
2021/12/06 03:52:01;;;;;;;64.63;22.02;;;;;;;8.56;90.80;99315.50;5071603;28;20035;-20
2021/12/06 03:54:27;;;;;;;70.63;23.73;;;;;;;8.29;89.99;99283.91;5071661;28;20036;-20
2021/12/06 03:56:52;;;;;;;67.32;27.08;;;;;;;8.21;90.58;99302.81;5071540;28;20031;-19
2021/12/06 03:59:18;;;;;;;70.18;26.67;;;;;;;8.15;90.82;99298.38;5071470;28;20033;-20
2021/12/06 04:01:45;;;;;;;77.68;25.88;;;;;;;8.20;91.40;99317.94;5071495;28;20036;-21
2021/12/06 04:04:11;;;;;;;72.13;25.42;;;;;;;8.00;92.32;99312.03;5071492;28;20029;-20
2021/12/06 04:06:37;;;;;;;66.93;20.70;;;;;;;8.01;92.68;99325.09;5071533;28;20412;-20
2021/12/06 04:09:04;;;;;;;66.70;21.27;;;;;;;7.69;93.66;99326.22;5071657;28;20170;-20
2021/12/06 04:11:29;;;;;;;61.10;20.65;;;;;;;7.68;94.12;99327.25;5071260;28;20040;-20
2021/12/06 04:13:55;;;;;;;80.00;23.75;;;;;;;7.77;93.89;99312.69;5071496;28;20039;-20
2021/12/06 04:16:20;;;;;;;69.00;20.83;;;;;;;7.68;93.70;99319.28;5071578;28;20028;-20
2021/12/06 04:18:46;;;;;;;69.82;20.75;;;;;;;7.89;93.91;99321.53;5071706;28;20035;-20
2021/12/06 04:21:11;;;;;;;68.57;22.35;;;;;;;7.90;92.39;99298.44;5053190;28;21073;-20
2021/12/06 04:23:37;;;;;;;68.72;19.60;;;;;;;8.19;91.30;99315.50;5070812;28;20063;-21
2021/12/06 04:26:03;;;;;;;64.45;20.45;;;;;;;8.24;90.43;99318.31;5052885;28;20473;-20
2021/12/06 04:28:30;;;;;;;73.55;21.42;;;;;;;8.32;90.61;99307.38;5071022;28;20066;-20
2021/12/06 04:30:56;;;;;;;67.22;21.02;;;;;;;8.51;89.42;99318.84;5070873;28;20033;-20
2021/12/06 04:33:21;;;;;;;71.15;22.88;;;;;;;8.19;90.11;99304.88;5069605;28;20036;-20
2021/12/06 04:35:47;;;;;;;83.03;24.40;;;;;;;7.96;91.38;99303.69;5070672;28;20130;-20
2021/12/06 04:38:13;;;;;;;75.38;23.15;;;;;;;7.91;91.68;99300.09;5070775;28;20036;-20
2021/12/06 04:40:38;;;;;;;69.53;21.70;;;;;;;7.63;92.29;99296.06;5070820;28;20060;-20
2021/12/06 04:43:04;;;;;;;66.45;22.10;;;;;;;7.95;91.72;99303.94;5070781;28;20133;-20
2021/12/06 04:45:31;;;;;;;62.47;20.92;;;;;;;7.93;90.78;99282.91;5070545;28;20029;-20
2021/12/06 04:47:57;;;;;;;67.78;19.88;;;;;;;8.50;89.00;99327.03;5070517;28;20038;-20
2021/12/06 04:50:25;;;;;;;66.88;23.75;;;;;;;8.60;87.92;99328.13;5070932;28;20041;-20
2021/12/06 04:52:52;;;;;;;64.32;27.20;;;;;;;8.78;87.04;99324.59;5069603;28;20119;-20
2021/12/06 04:55:29;;;;;;;72.93;28.10;;;;;;;8.97;86.35;99332.53;5070057;28;20476;-19
2021/12/06 04:57:55;;;;;;;75.57;30.05;;;;;;;9.08;85.50;99339.75;5070732;28;20040;-20
2021/12/06 05:00:22;;;;;;;59.65;21.52;;;;;;;8.89;85.44;99336.34;5070510;28;20035;-21
2021/12/06 05:02:48;;;;;;;62.97;20.65;;;;;;;8.85;85.67;99320.03;5070591;28;20039;-20
2021/12/06 05:05:23;;;;;;;58.13;19.45;;;;;;;8.39;87.49;99331.22;5070485;28;20028;-20
2021/12/06 05:07:53;;;;;;;54.30;18.45;;;;;;;7.79;90.44;99324.69;5070230;28;20101;-21
2021/12/06 05:10:19;;;;;;;48.72;17.95;;;;;;;7.82;91.38;99347.31;5070240;28;20037;-21
2021/12/06 05:12:45;;;;;;;43.03;15.15;;;;;;;7.72;91.35;99315.16;5070303;28;20047;-20
2021/12/06 05:15:11;;;;;;;46.63;17.55;;;;;;;7.79;91.69;99323.88;5051644;28;20060;-20
2021/12/06 05:17:36;;;;;;;51.97;18.27;;;;;;;7.94;90.56;99334.16;5052227;28;20395;-20
2021/12/06 05:20:03;;;;;;;58.85;19.42;;;;;;;8.05;89.87;99326.28;5070129;28;20787;-20
2021/12/06 05:22:29;;;;;;;56.30;18.35;;;;;;;8.02;89.91;99334.66;5070179;28;20032;-19
2021/12/06 05:24:54;;;;;;;50.45;18.52;;;;;;;7.89;90.23;99334.81;5070092;28;20033;-20
2021/12/06 05:27:26;;;;;;;43.22;15.90;;;;;;;7.57;91.92;99332.22;5069772;28;20035;-20
2021/12/06 05:29:56;;;;;;;61.25;20.10;;;;;;;7.23;93.61;99325.56;5052944;28;20032;-26
2021/12/06 05:32:21;;;;;;;60.08;19.30;;;;;;;7.71;92.08;99342.75;5069771;28;20089;-20
2021/12/06 05:34:49;;;;;;;63.20;19.75;;;;;;;7.65;91.55;99347.88;5069526;28;20033;-21
2021/12/06 05:37:14;;;;;;;56.37;18.27;;;;;;;7.49;92.09;99331.69;5068340;28;20033;-20
2021/12/06 05:39:40;;;;;;;55.88;19.80;;;;;;;7.78;91.14;99351.44;5051606;28;20400;-21
2021/12/06 05:42:08;;;;;;;54.75;20.88;;;;;;;8.08;89.69;99343.59;5069862;28;20033;-21
2021/12/06 05:44:34;;;;;;;72.60;19.30;;;;;;;8.21;88.95;99329.38;5070105;28;20039;-20
2021/12/06 05:46:59;;;;;;;64.13;20.52;;;;;;;7.96;89.37;99327.59;5069989;28;20036;-19
2021/12/06 05:49:25;;;;;;;62.90;20.75;;;;;;;7.76;90.76;99326.97;5069286;28;20032;-20
2021/12/06 05:51:51;;;;;;;60.33;23.08;;;;;;;7.62;91.67;99329.75;5069625;28;20119;-20
2021/12/06 05:54:16;;;;;;;79.32;22.25;;;;;;;7.55;92.30;99318.38;5069362;28;20024;-20
2021/12/06 05:56:42;;;;;;;51.42;18.73;;;;;;;7.77;92.03;99333.91;5069136;28;20028;-20
2021/12/06 05:59:07;;;;;;;48.25;18.05;;;;;;;7.72;91.53;99331.88;5069517;28;20086;-20
2021/12/06 06:01:33;;;;;;;46.25;16.52;;;;;;;7.68;91.93;99333.34;5069282;28;20126;-20
2021/12/06 06:04:01;;;;;;;58.15;18.50;;;;;;;7.65;91.67;99337.25;5068946;28;20411;-20
2021/12/06 06:06:30;;;;;;;63.97;20.17;;;;;;;7.64;91.11;99324.19;5069178;28;20043;-20
2021/12/06 06:08:56;;;;;;;61.55;18.33;;;;;;;7.79;90.86;99326.53;5069077;28;20037;-20
2021/12/06 06:11:21;;;;;;;64.88;21.67;;;;;;;8.00;90.55;99322.66;5068945;28;20036;-20
2021/12/06 06:13:47;;;;;;;55.65;18.50;;;;;;;8.09;89.71;99323.16;5068937;28;20032;-20
2021/12/06 06:16:17;;;;;;;64.47;18.15;;;;;;;8.20;89.79;99327.75;5068903;28;20089;-20
2021/12/06 06:18:43;;;;;;;65.55;19.77;;;;;;;8.37;88.49;99314.69;5069118;28;20037;-21
2021/12/06 06:21:08;;;;;;;57.95;18.52;;;;;;;8.20;89.60;99333.06;5068784;28;20035;-20
2021/12/06 06:23:34;;;;;;;67.80;20.58;;;;;;;8.34;89.14;99325.78;5068860;28;20036;-20
2021/12/06 06:25:59;;;;;;;67.57;21.58;;;;;;;8.61;87.52;99331.59;5068840;28;20025;-20
2021/12/06 06:28:24;;;;;;;66.93;21.27;;;;;;;8.61;87.15;99336.91;5068851;28;20055;-20
2021/12/06 06:30:50;;;;;;;63.00;19.55;;;;;;;8.78;86.98;99335.25;5068659;28;20032;-20
2021/12/06 06:33:15;;;;;;;68.35;20.50;;;;;;;8.72;87.04;99346.78;5068812;28;20036;-20
2021/12/06 06:35:41;;;;;;;66.07;21.88;;;;;;;8.76;86.30;99331.19;5068100;28;20028;-20
2021/12/06 06:38:06;;;;;;;72.25;22.10;;;;;;;8.79;86.19;99350.19;5068704;28;20040;-21
2021/12/06 06:40:32;;;;;;;79.53;24.63;;;;;;;8.55;87.32;99348.44;5068556;28;20035;-20
2021/12/06 06:42:57;;;;;;;91.57;29.50;;;;;;;8.75;86.81;99383.56;5068605;28;20036;-21
2021/12/06 06:45:23;;;;;;;81.10;25.83;;;;;;;8.88;86.32;99368.47;5068174;28;20480;-24
2021/12/06 06:47:49;;;;;;;85.97;24.67;;;;;;;8.55;87.62;99370.50;5068175;28;20024;-20
2021/12/06 06:50:15;;;;;;;79.03;22.35;;;;;;;8.57;87.69;99373.75;5068237;28;20518;-20
2021/12/06 06:52:40;;;;;;;79.93;20.20;;;;;;;8.12;89.94;99362.56;5068619;28;20117;-20
2021/12/06 06:55:06;;;;;;;83.60;21.13;;;;;;;8.01;90.52;99335.72;5068197;28;20025;-20
2021/12/06 06:57:32;;;;;;;88.80;21.45;;;;;;;8.36;90.11;99366.22;5068097;28;20060;-20
2021/12/06 06:59:57;;;;;;;76.22;23.90;;;;;;;8.30;89.83;99357.28;5068154;28;20071;-20
2021/12/06 07:02:23;;;;;;;79.15;22.35;;;;;;;8.28;90.46;99342.59;5067959;28;20165;-21
2021/12/06 07:04:48;;;;;;;72.30;24.25;;;;;;;8.76;89.15;99355.94;5050307;28;20103;-20
2021/12/06 07:07:13;;;;;;;97.78;22.33;;;;;;;9.12;86.57;99361.41;5068084;28;20040;-20
2021/12/06 07:09:41;;;;;;;80.45;22.83;;;;;;;8.90;87.17;99356.56;5067636;28;20040;-20
2021/12/06 07:12:12;;;;;;;75.95;22.00;;;;;;;8.90;87.30;99363.75;5067992;28;20099;-20
2021/12/06 07:14:38;;;;;;;78.78;24.20;;;;;;;8.73;87.89;99343.09;5046396;28;20049;-20
2021/12/06 07:17:03;;;;;;;74.55;23.85;;;;;;;8.51;88.70;99334.78;5047615;28;20626;-20
2021/12/06 07:19:29;;;;;;;59.55;20.23;;;;;;;8.21;90.59;99358.59;5047722;28;20033;-20
2021/12/06 07:21:54;;;;;;;74.80;20.75;;;;;;;8.19;92.18;99355.34;5047917;28;20040;-20
2021/12/06 07:24:20;;;;;;;70.20;22.05;;;;;;;8.55;91.25;99337.81;5048332;28;20039;-20
2021/12/06 07:26:45;;;;;;;79.63;21.27;;;;;;;8.78;89.44;99337.09;5048082;28;20032;-20
2021/12/06 07:29:11;;;;;;;96.28;20.17;;;;;;;8.87;89.41;99324.28;5048105;28;20076;-20
2021/12/06 07:31:36;;;;;;;75.97;20.02;;;;;;;8.77;89.48;99328.31;5047722;28;20036;-20
2021/12/06 07:34:02;;;;;;;76.93;19.98;;;;;;;8.60;90.82;99317.50;5047780;28;20083;-20
2021/12/06 07:36:29;;;;;;;82.88;20.15;;;;;;;8.99;88.91;99322.47;5047993;28;20028;-20
2021/12/06 07:38:55;;;;;;;76.25;19.70;;;;;;;9.22;87.85;99332.41;5048085;28;20041;-20
2021/12/06 07:41:21;;;;;;;91.70;19.52;;;;;;;9.34;87.10;99319.13;5047623;28;20032;-20
2021/12/06 07:43:47;;;;;;;69.25;21.15;;;;;;;9.29;86.22;99308.34;5047653;28;20029;-20
2021/12/06 07:46:12;;;;;;;79.32;22.27;;;;;;;9.63;85.69;99310.22;5047483;28;20099;-20
2021/12/06 07:48:40;;;;;;;75.15;22.10;;;;;;;9.17;87.89;99309.13;5047805;28;20036;-20
2021/12/06 07:51:06;;;;;;;62.65;19.95;;;;;;;8.75;89.72;99313.63;5047498;28;20147;-20
2021/12/06 07:53:32;;;;;;;70.57;20.77;;;;;;;9.30;88.66;99325.94;5047440;28;20538;-20
2021/12/06 07:55:58;;;;;;;76.10;20.42;;;;;;;9.12;88.97;99326.81;5047694;28;20603;-20
2021/12/06 07:58:24;;;;;;;120.43;48.25;;;;;;;8.98;89.29;99323.53;5046317;28;20037;-20
2021/12/06 08:00:52;;;;;;;79.70;22.58;;;;;;;9.11;89.11;99319.88;5047748;28;20080;-20
2021/12/06 08:03:20;;;;;;;64.40;20.83;;;;;;;9.51;87.40;99338.69;5047529;28;20025;-20
2021/12/06 08:05:46;;;;;;;71.93;20.92;;;;;;;9.60;86.51;99332.00;5047558;28;20044;-19
2021/12/06 08:08:13;;;;;;;64.03;20.95;;;;;;;9.79;85.67;99345.22;5047554;28;20029;-20
2021/12/06 08:10:49;;;;;;;73.57;22.27;;;;;;;9.22;88.03;99341.19;5047413;28;20040;-20
2021/12/06 08:13:20;;;;;;;70.20;20.35;;;;;;;9.24;87.83;99335.66;5047472;28;20390;-21
2021/12/06 08:15:45;;;;;;;65.80;20.42;;;;;;;9.14;88.92;99346.03;5064247;28;20065;-20
2021/12/06 08:18:11;;;;;;;67.63;20.02;;;;;;;9.22;89.15;99335.88;5049485;28;20039;-20
2021/12/06 08:20:37;;;;;;;70.03;21.02;;;;;;;9.53;87.85;99323.31;5067347;28;20040;-20
2021/12/06 08:23:03;;;;;;;71.10;21.17;;;;;;;9.70;86.24;99325.28;5067647;28;20036;-20
2021/12/06 08:25:28;;;;;;;61.33;19.50;;;;;;;9.74;85.62;99318.44;5067135;28;20029;-20
2021/12/06 08:27:54;;;;;;;67.90;21.20;;;;;;;10.03;84.41;99333.50;5069078;28;20039;-20
2021/12/06 08:30:22;;;;;;;67.88;21.40;;;;;;;9.91;85.08;99316.72;5052960;28;20110;-19
2021/12/06 08:32:58;;;;;;;64.05;22.48;;;;;;;9.43;86.64;99302.56;5071286;28;20078;-20
2021/12/06 08:35:26;;;;;;;59.55;20.27;;;;;;;9.32;87.37;99292.75;5052838;28;20044;-20
2021/12/06 08:37:52;;;;;;;60.60;20.25;;;;;;;9.34;88.35;99311.16;5070809;28;20029;-20
2021/12/06 08:40:18;;;;;;;62.20;20.08;;;;;;;9.62;86.52;99305.13;5070803;28;20040;-20
2021/12/06 08:42:43;;;;;;;59.72;19.70;;;;;;;9.54;87.01;99300.97;5071091;28;20443;-20
2021/12/06 08:45:09;;;;;;;53.97;19.88;;;;;;;9.57;86.87;99310.34;5070915;28;20043;-20
2021/12/06 08:47:35;;;;;;;58.53;19.83;;;;;;;9.97;85.55;99296.31;5070672;28;20032;-20
2021/12/06 08:50:01;;;;;;;54.05;20.15;;;;;;;10.19;84.01;99280.53;5071028;28;20043;-20
2021/12/06 08:52:26;;;;;;;61.60;21.70;;;;;;;9.92;85.24;99278.38;5070722;28;20033;-20
2021/12/06 08:54:52;;;;;;;76.60;24.80;;;;;;;10.07;85.36;99293.88;5052615;28;20047;-19
2021/12/06 08:57:18;;;;;;;75.03;22.48;;;;;;;10.45;84.03;99282.69;5070575;28;20028;-19
2021/12/06 08:59:43;;;;;;;67.80;24.00;;;;;;;10.45;83.11;99293.34;5070459;28;20028;-20
2021/12/06 09:02:09;;;;;;;66.85;26.75;;;;;;;10.31;83.24;99285.88;5070510;28;20499;-20
2021/12/06 09:04:37;;;;;;;83.35;29.00;;;;;;;10.56;82.97;99281.03;5070486;28;20029;-20
2021/12/06 09:07:09;;;;;;;88.22;30.30;;;;;;;10.64;82.12;99261.16;5070440;28;20039;-20
2021/12/06 09:09:35;;;;;;;95.28;32.40;;;;;;;10.89;81.44;99258.16;5070175;28;20033;-20
2021/12/06 09:12:01;;;;;;;77.13;30.05;;;;;;;10.63;83.37;99281.69;5070278;28;20039;-20
2021/12/06 09:14:28;;;;;;;83.38;30.17;;;;;;;10.62;82.57;99257.94;5070132;28;20405;-20
2021/12/06 09:16:54;;;;;;;82.72;29.95;;;;;;;10.82;81.46;99268.97;5070208;28;20037;-20
2021/12/06 09:19:19;;;;;;;76.95;28.40;;;;;;;10.30;84.36;99266.41;5051931;28;20058;-20
2021/12/06 09:21:45;;;;;;;80.40;29.80;;;;;;;10.33;85.53;99249.13;5069926;28;20047;-20
2021/12/06 09:24:14;;;;;;;77.95;29.38;;;;;;;10.44;84.85;99241.09;5070138;28;20094;-20
2021/12/06 09:26:40;;;;;;;75.43;26.65;;;;;;;10.23;84.40;99233.72;5070044;28;20573;-20
2021/12/06 09:29:05;;;;;;;80.85;28.58;;;;;;;10.57;83.82;99250.66;5052150;28;20032;-19
2021/12/06 09:31:31;;;;;;;79.18;27.38;;;;;;;10.60;82.74;99220.03;5069889;28;20028;-20
2021/12/06 09:33:56;;;;;;;70.18;25.77;;;;;;;10.65;82.09;99239.59;5069698;28;20036;-20
2021/12/06 09:36:22;;;;;;;67.97;26.33;;;;;;;10.11;85.78;99239.06;5069660;28;20052;-20
2021/12/06 09:38:48;;;;;;;69.38;26.95;;;;;;;9.93;87.11;99226.75;5069408;28;20516;-20
2021/12/06 09:41:21;;;;;;;75.10;26.75;;;;;;;10.22;86.23;99242.78;5069375;28;20027;-20
2021/12/06 09:43:47;;;;;;;72.78;25.70;;;;;;;10.59;84.39;99221.09;5069417;28;20484;-20
2021/12/06 09:46:13;;;;;;;66.18;25.38;;;;;;;10.79;83.00;99239.31;5069449;28;20025;-20
2021/12/06 09:48:39;;;;;;;63.25;24.33;;;;;;;10.68;83.02;99214.31;5069350;28;20032;-20
2021/12/06 09:51:09;;;;;;;58.40;22.23;;;;;;;10.63;84.94;99227.56;5069227;28;20032;-20
2021/12/06 09:53:35;;;;;;;58.83;23.58;;;;;;;10.29;85.06;99219.44;5069133;28;20036;-20
2021/12/06 09:56:04;;;;;;;55.15;20.30;;;;;;;10.10;86.69;99229.47;5069513;28;20089;-19
2021/12/06 09:58:30;;;;;;;62.03;21.83;;;;;;;10.30;86.43;99228.28;5069242;28;20028;-20
2021/12/06 10:00:58;;;;;;;64.32;22.45;;;;;;;10.11;88.02;99235.59;5069394;28;20040;-20
2021/12/06 10:03:28;;;;;;;66.10;24.08;;;;;;;10.30;87.33;99205.13;5069467;28;20039;-20
2021/12/06 10:05:57;;;;;;;81.22;27.52;;;;;;;10.52;85.97;99209.75;5052083;28;20033;-20
2021/12/06 10:08:23;;;;;;;87.25;28.48;;;;;;;10.66;85.39;99200.41;5069220;28;20545;-20
2021/12/06 10:10:48;;;;;;;86.07;30.60;;;;;;;10.52;85.06;99193.75;5069126;28;20037;-20
2021/12/06 10:13:16;;;;;;;85.35;28.55;;;;;;;10.56;85.61;99201.06;5068956;28;20502;-20
2021/12/06 10:15:43;;;;;;;100.55;32.78;;;;;;;10.39;86.26;99177.03;5069014;28;20056;-20
2021/12/06 10:18:10;;;;;;;83.68;29.75;;;;;;;10.51;86.27;99181.50;5068786;28;20462;-20
2021/12/06 10:20:35;;;;;;;78.80;28.33;;;;;;;10.30;86.89;99173.13;5068972;28;20499;-20
2021/12/06 10:23:01;;;;;;;76.53;27.85;;;;;;;10.23;86.17;99169.75;5068867;28;20481;-20
2021/12/06 10:25:38;;;;;;;82.18;29.77;;;;;;;10.44;86.16;99163.81;5068630;28;20033;-20
2021/12/06 10:28:05;;;;;;;97.90;31.83;;;;;;;10.69;84.90;99157.28;5068945;28;20516;-22
2021/12/06 10:30:34;;;;;;;92.60;31.13;;;;;;;10.61;84.81;99176.34;5068858;28;20032;-21
2021/12/06 10:33:08;;;;;;;89.15;28.80;;;;;;;10.33;86.74;99164.66;5068660;28;20090;-20
2021/12/06 10:35:33;;;;;;;87.47;27.48;;;;;;;10.60;85.28;99142.72;5068337;28;20500;-20
2021/12/06 10:37:59;;;;;;;84.20;30.38;;;;;;;11.08;82.56;99117.31;5068327;28;20107;-20
2021/12/06 10:40:30;;;;;;;92.93;28.98;;;;;;;11.08;82.36;99129.88;5068687;28;20043;-20
2021/12/06 10:42:56;;;;;;;87.60;29.27;;;;;;;11.16;82.11;99124.91;5068307;28;20569;-20
2021/12/06 10:45:24;;;;;;;79.70;27.65;;;;;;;10.88;83.99;99122.38;5068360;28;20025;-20
2021/12/06 10:48:10;;;;;;;76.75;26.90;;;;;;;10.20;85.89;99123.09;5068359;28;20098;-20
2021/12/06 10:50:47;;;;;;;79.80;29.38;;;;;;;10.35;86.33;99119.13;5067687;28;20479;-20
2021/12/06 10:53:14;;;;;;;95.55;32.53;;;;;;;10.51;85.75;99134.31;5068325;28;20082;-21
2021/12/06 10:55:41;;;;;;;90.05;32.88;;;;;;;10.44;85.91;99112.31;5067926;28;20044;-20
2021/12/06 10:58:10;;;;;;;74.10;27.45;;;;;;;10.44;86.87;99121.16;5068057;28;20052;-20
2021/12/06 11:00:37;;;;;;;75.85;27.13;;;;;;;10.49;85.46;99124.94;5068161;28;20054;-21
2021/12/06 11:03:03;;;;;;;73.35;28.58;;;;;;;10.53;85.03;99115.41;5068087;28;20451;-20
2021/12/06 11:05:30;;;;;;;77.00;27.88;;;;;;;10.59;85.91;99127.78;5050161;28;20111;-21
2021/12/06 11:07:57;;;;;;;78.32;28.80;;;;;;;10.71;84.72;99101.84;5068064;28;20527;-21
2021/12/06 11:10:24;;;;;;;75.30;28.23;;;;;;;10.67;85.75;99107.91;5067992;28;20040;-20
2021/12/06 11:13:10;;;;;;;68.85;25.83;;;;;;;10.45;85.24;99112.09;5067921;28;20027;-20
2021/12/06 11:15:36;;;;;;;78.72;27.90;;;;;;;10.72;85.57;99119.44;5052506;28;20059;-20
2021/12/06 11:18:01;;;;;;;69.30;27.55;;;;;;;10.81;84.90;99114.53;5033430;28;20028;-19
2021/12/06 11:20:27;;;;;;;69.22;26.70;;;;;;;10.68;84.37;99118.31;5067898;28;20431;-20
2021/12/06 11:22:52;;;;;;;58.58;23.90;;;;;;;10.51;85.97;99102.31;5067970;28;20056;-20
2021/12/06 11:25:18;;;;;;;62.90;26.55;;;;;;;10.94;84.62;99084.03;5067725;28;20028;-19
2021/12/06 11:27:44;;;;;;;58.78;23.80;;;;;;;10.77;84.18;99097.41;5067792;28;20093;-20
2021/12/06 11:30:12;;;;;;;60.90;24.58;;;;;;;10.85;83.82;99099.66;5067704;28;20093;-20
2021/12/06 11:32:40;;;;;;;59.67;26.77;;;;;;;10.54;84.71;99077.88;5067952;28;20016;-20
2021/12/06 11:35:11;;;;;;;;;;;;;;;10.81;83.68;99087.88;5068316;28;20090;-20